Time;durP1;ratioP1;P1;durP2;ratioP2;P2;SDS_P1;SDS_P2;PMS_P1;PMS_P2;Temp;Humidity;BMP_temperature;BMP_pressure;BME280_temperature;BME280_humidity;BME280_pressure;Samples;Min_cycle;Max_cycle;Signal;HPM_P1;HPM_P2
2022/01/02 00:02:12;;;;;;;11.48;8.80;;;;;;;6.76;100.00;91579.72;5011446;28;20030;-72
2022/01/02 00:04:47;;;;;;;11.43;8.55;;;;;;;6.84;100.00;91579.19;5011603;28;20061;-72
2022/01/02 00:07:16;;;;;;;13.45;9.85;;;;;;;6.95;100.00;91574.66;5011434;28;20030;-72
2022/01/02 00:09:46;;;;;;;14.18;10.57;;;;;;;6.98;100.00;91566.19;5011337;28;20160;-72
2022/01/02 00:12:16;;;;;;;17.83;11.98;;;;;;;7.07;100.00;91569.84;5011375;28;20041;-72
2022/01/02 00:14:46;;;;;;;11.73;8.65;;;;;;;7.13;100.00;91582.00;5011308;28;20044;-72
2022/01/02 00:17:12;;;;;;;11.57;8.80;;;;;;;7.12;100.00;91578.56;5011616;28;20034;-71
2022/01/02 00:19:40;;;;;;;11.50;9.13;;;;;;;7.16;100.00;91579.59;5011232;28;20018;-71
2022/01/02 00:22:14;;;;;;;15.23;12.43;;;;;;;7.25;100.00;91587.75;5011525;28;20475;-71
2022/01/02 00:24:42;;;;;;;17.00;13.77;;;;;;;7.34;100.00;91582.69;5011399;28;20025;-71
2022/01/02 00:27:09;;;;;;;16.20;12.40;;;;;;;7.35;100.00;91586.91;5011219;28;20026;-71
2022/01/02 00:29:40;;;;;;;19.13;13.77;;;;;;;7.34;100.00;91585.34;5011251;28;20385;-71
2022/01/02 00:32:07;;;;;;;14.65;11.02;;;;;;;7.32;100.00;91593.56;5011138;28;20033;-71
2022/01/02 00:34:37;;;;;;;10.15;8.20;;;;;;;7.28;100.00;91592.50;5010997;28;20026;-71
2022/01/02 00:37:06;;;;;;;9.35;7.90;;;;;;;7.19;100.00;91588.84;5011153;28;20096;-71
2022/01/02 00:39:33;;;;;;;11.60;9.60;;;;;;;7.15;100.00;91585.16;5010999;28;20022;-71
2022/01/02 00:42:14;;;;;;;12.70;9.73;;;;;;;7.14;100.00;91592.31;5011039;28;20083;-71
2022/01/02 00:45:00;;;;;;;10.93;8.90;;;;;;;7.23;100.00;91600.47;5011178;28;20068;-71
2022/01/02 00:47:51;;;;;;;11.27;8.60;;;;;;;7.28;100.00;91600.47;5010705;28;20085;-71
2022/01/02 00:50:22;;;;;;;11.73;8.85;;;;;;;7.32;100.00;91593.56;5010982;28;20038;-72
2022/01/02 00:52:49;;;;;;;11.82;10.30;;;;;;;7.18;100.00;91581.97;5011284;28;20440;-71
2022/01/02 00:55:19;;;;;;;11.38;10.07;;;;;;;7.32;100.00;91596.19;5010852;28;20061;-71
2022/01/02 00:57:56;;;;;;;10.15;8.75;;;;;;;7.20;100.00;91590.41;5010983;28;20105;-71
2022/01/02 01:00:22;;;;;;;11.52;9.07;;;;;;;7.28;100.00;91584.56;5010869;28;20026;-72
2022/01/02 01:02:53;;;;;;;13.13;10.18;;;;;;;7.31;100.00;91585.88;5010954;28;20388;-71
2022/01/02 01:05:29;;;;;;;10.82;8.70;;;;;;;7.44;100.00;91586.09;5010805;28;20040;-72
2022/01/02 01:07:57;;;;;;;9.70;8.50;;;;;;;7.49;100.00;91596.63;5013715;28;20038;-72
2022/01/02 01:10:27;;;;;;;11.98;8.77;;;;;;;7.43;100.00;91589.00;5014359;28;20030;-72
2022/01/02 01:12:55;;;;;;;10.43;8.60;;;;;;;7.33;100.00;91584.53;5014585;28;20041;-71
2022/01/02 01:15:22;;;;;;;10.00;8.27;;;;;;;7.20;100.00;91577.97;5014164;28;20061;-71
2022/01/02 01:17:49;;;;;;;11.27;9.63;;;;;;;7.11;100.00;91570.91;5014270;28;20041;-71
2022/01/02 01:20:15;;;;;;;10.60;8.90;;;;;;;7.08;100.00;91579.34;5014029;28;20496;-71
2022/01/02 01:22:42;;;;;;;9.82;8.65;;;;;;;6.98;100.00;91585.50;5014120;28;20048;-71
2022/01/02 01:25:15;;;;;;;10.05;9.05;;;;;;;6.89;100.00;91585.25;5013998;28;20049;-71
2022/01/02 01:27:42;;;;;;;11.88;9.50;;;;;;;6.95;100.00;91582.59;5014094;28;20459;-71
2022/01/02 01:30:09;;;;;;;12.55;9.40;;;;;;;6.91;100.00;91577.81;5014000;28;20451;-72
2022/01/02 01:32:36;;;;;;;10.82;8.82;;;;;;;7.01;100.00;91584.94;5013932;28;20026;-71
2022/01/02 01:35:02;;;;;;;11.07;8.63;;;;;;;7.01;100.00;91579.66;5013840;28;20120;-71
2022/01/02 01:37:28;;;;;;;11.75;9.18;;;;;;;7.04;100.00;91573.81;5013906;28;20108;-72
2022/01/02 01:39:54;;;;;;;12.38;9.55;;;;;;;7.05;100.00;91575.41;5013694;28;20463;-72
2022/01/02 01:42:28;;;;;;;12.90;9.43;;;;;;;7.10;100.00;91591.28;5013818;28;20030;-72
2022/01/02 01:45:39;;;;;;;;;;;;;;;7.06;100.00;91584.13;5014280;28;20037;-72
2022/01/02 01:47:39;;;;;;;11.70;8.73;;;;;;;7.01;100.00;91592.09;5009576;28;19921;-72
2022/01/02 01:50:05;;;;;;;11.52;9.00;;;;;;;6.89;100.00;91587.09;5013610;28;20470;-72
2022/01/02 01:52:31;;;;;;;11.38;9.32;;;;;;;6.88;100.00;91593.44;5013536;28;20026;-72
2022/01/02 01:54:56;;;;;;;12.07;8.98;;;;;;;6.90;100.00;91597.41;5013368;28;20022;-72
2022/01/02 01:57:22;;;;;;;12.10;9.65;;;;;;;6.89;100.00;91595.81;5013441;28;20038;-72
2022/01/02 01:59:48;;;;;;;14.95;9.50;;;;;;;6.91;100.00;91596.34;5013493;28;20025;-72
2022/01/02 02:02:17;;;;;;;13.65;9.85;;;;;;;6.87;100.00;91592.66;5013317;28;20045;-72
2022/01/02 02:04:43;;;;;;;13.07;10.52;;;;;;;6.78;100.00;91578.41;5013257;28;20156;-72
2022/01/02 02:07:08;;;;;;;14.82;10.18;;;;;;;6.80;100.00;91586.88;5012009;28;20120;-72
2022/01/02 02:09:54;;;;;;;10.48;9.38;;;;;;;6.77;100.00;91576.81;5013243;28;20022;-72
2022/01/02 02:12:19;;;;;;;12.05;9.75;;;;;;;6.68;100.00;91583.72;5011871;28;20052;-71
2022/01/02 02:14:45;;;;;;;13.07;9.60;;;;;;;6.44;100.00;91572.13;5013053;28;20488;-71
2022/01/02 02:17:11;;;;;;;12.32;10.02;;;;;;;6.32;100.00;91580.38;5013038;28;20139;-71
2022/01/02 02:19:37;;;;;;;13.98;8.75;;;;;;;6.25;100.00;91577.97;5012192;28;20488;-71
2022/01/02 02:22:03;;;;;;;10.40;9.27;;;;;;;6.35;100.00;91579.03;5012974;28;20111;-71
2022/01/02 02:24:29;;;;;;;12.00;9.93;;;;;;;6.27;100.00;91570.56;5012886;28;20022;-71
2022/01/02 02:26:54;;;;;;;11.32;9.63;;;;;;;6.39;100.00;91566.88;5012883;28;20022;-71
2022/01/02 02:29:20;;;;;;;18.95;11.43;;;;;;;6.34;100.00;91551.81;5012895;28;20033;-71
2022/01/02 02:31:45;;;;;;;12.82;9.77;;;;;;;6.55;100.00;91579.00;5012807;28;20030;-71
2022/01/02 02:34:11;;;;;;;11.93;9.95;;;;;;;6.57;100.00;91582.16;5012615;28;20038;-71
2022/01/02 02:36:36;;;;;;;11.27;9.65;;;;;;;6.56;100.00;91578.72;5012727;28;20109;-71
2022/01/02 02:39:03;;;;;;;12.02;9.18;;;;;;;6.65;100.00;91581.63;5012628;28;20443;-71
2022/01/02 02:41:33;;;;;;;11.05;9.48;;;;;;;6.61;100.00;91576.06;5012910;28;20118;-71
2022/01/02 02:44:08;;;;;;;11.18;9.43;;;;;;;6.62;100.00;91582.13;5012509;28;20029;-72
2022/01/02 02:49:17;;;;;;;14.02;10.00;;;;;;;6.63;100.00;91581.09;5012772;28;20165;-71
2022/01/02 02:54:42;;;;;;;12.52;10.13;;;;;;;6.54;100.00;91577.41;4989684;28;20099;-72
2022/01/02 02:57:12;;;;;;;12.27;9.40;;;;;;;6.63;100.00;91588.22;5012320;28;20033;-72
2022/01/02 02:59:38;;;;;;;12.18;9.98;;;;;;;6.59;100.00;91580.03;5012273;28;20484;-72
2022/01/02 03:02:04;;;;;;;12.90;9.50;;;;;;;6.74;100.00;91590.56;5012224;28;20030;-72
2022/01/02 03:04:30;;;;;;;14.10;9.85;;;;;;;6.76;100.00;91579.72;5012194;28;20037;-72
2022/01/02 03:06:56;;;;;;;11.70;9.45;;;;;;;6.79;100.00;91595.09;5012182;28;20022;-71
2022/01/02 03:11:58;;;;;;;12.02;9.32;;;;;;;6.92;100.00;91591.84;5012105;28;20026;-71
2022/01/02 03:14:24;;;;;;;13.75;10.00;;;;;;;6.98;100.00;91598.72;5011979;28;20034;-72
2022/01/02 03:16:50;;;;;;;13.68;10.38;;;;;;;6.94;100.00;91607.44;5012066;28;20029;-72
2022/01/02 03:19:15;;;;;;;14.52;9.90;;;;;;;6.94;100.00;91604.78;5011936;28;20021;-72
2022/01/02 03:21:41;;;;;;;12.18;9.48;;;;;;;6.82;100.00;91590.03;5011929;28;20065;-72
2022/01/02 03:24:06;;;;;;;11.05;9.43;;;;;;;6.79;100.00;91590.59;5011841;28;20021;-71
2022/01/02 03:26:32;;;;;;;12.02;9.32;;;;;;;6.88;100.00;91599.53;5011884;28;20032;-71
2022/01/02 03:28:58;;;;;;;11.50;9.63;;;;;;;6.81;100.00;91593.75;5011673;28;20049;-72
2022/01/02 03:31:23;;;;;;;14.70;10.07;;;;;;;6.78;100.00;91609.34;5011819;28;20467;-71
2022/01/02 03:33:49;;;;;;;10.95;9.30;;;;;;;6.71;100.00;91604.34;5011704;28;20109;-71
2022/01/02 03:36:14;;;;;;;11.13;9.55;;;;;;;6.65;100.00;91594.84;5011673;28;20054;-71
2022/01/02 03:38:40;;;;;;;15.40;9.65;;;;;;;6.57;100.00;91588.22;5011715;28;20026;-71
2022/01/02 03:41:05;;;;;;;12.65;9.68;;;;;;;6.57;100.00;91593.53;5011722;28;20080;-71
2022/01/02 03:43:31;;;;;;;11.82;8.98;;;;;;;6.60;100.00;91597.47;5011556;28;20483;-71
2022/01/02 03:45:57;;;;;;;14.60;10.32;;;;;;;6.55;100.00;91589.56;5011615;28;20030;-70
2022/01/02 03:48:22;;;;;;;11.13;9.73;;;;;;;6.45;100.00;91600.94;5010117;28;20046;-71
2022/01/02 03:50:48;;;;;;;14.43;10.70;;;;;;;6.45;100.00;91600.16;5011635;28;20480;-71
2022/01/02 03:53:14;;;;;;;15.30;9.93;;;;;;;6.50;100.00;91587.72;5011408;28;20034;-71
2022/01/02 03:55:39;;;;;;;27.35;19.08;;;;;;;6.45;100.00;91589.56;5011519;28;20048;-71
2022/01/02 03:58:06;;;;;;;15.10;11.43;;;;;;;6.34;100.00;91593.31;5011390;28;20096;-71
2022/01/02 04:00:31;;;;;;;14.25;10.88;;;;;;;6.20;100.00;91588.56;5011405;28;20066;-71
2022/01/02 04:02:57;;;;;;;20.95;12.30;;;;;;;6.09;100.00;91586.19;5011491;28;20535;-71
2022/01/02 04:05:22;;;;;;;17.33;11.95;;;;;;;5.97;100.00;91591.72;5011322;28;20499;-72
2022/01/02 04:07:48;;;;;;;14.35;10.48;;;;;;;5.87;100.00;91584.56;5011459;28;20030;-71
2022/01/02 04:10:16;;;;;;;13.88;10.60;;;;;;;5.76;100.00;91582.97;5011290;28;20029;-71
2022/01/02 04:12:42;;;;;;;14.63;11.27;;;;;;;5.73;100.00;91594.06;5011347;28;20030;-71
2022/01/02 04:15:10;;;;;;;22.13;15.75;;;;;;;5.62;100.00;91598.53;5011245;28;20083;-71
2022/01/02 04:17:37;;;;;;;19.85;13.48;;;;;;;5.58;100.00;91602.75;5011310;28;20032;-71
2022/01/02 04:20:05;;;;;;;14.77;10.65;;;;;;;5.61;100.00;91607.50;5011247;28;20061;-71
2022/01/02 04:22:31;;;;;;;15.50;10.93;;;;;;;5.56;100.00;91602.22;5011240;28;20026;-71
2022/01/02 04:24:57;;;;;;;13.73;10.77;;;;;;;5.48;100.00;91608.00;5011119;28;20040;-71
2022/01/02 04:27:24;;;;;;;15.73;11.20;;;;;;;5.52;100.00;91622.25;5011228;28;20030;-71
2022/01/02 04:29:50;;;;;;;17.17;11.88;;;;;;;5.54;100.00;91614.91;5009945;28;20409;-71
2022/01/02 04:32:16;;;;;;;20.88;13.32;;;;;;;5.61;100.00;91623.34;5011194;28;20508;-71
2022/01/02 04:34:42;;;;;;;18.35;11.63;;;;;;;5.73;100.00;91615.19;5011073;28;20092;-71
2022/01/02 04:37:10;;;;;;;17.67;11.13;;;;;;;5.83;100.00;91624.94;5011178;28;20029;-71
2022/01/02 04:39:35;;;;;;;13.98;10.38;;;;;;;5.95;100.00;91623.69;5011068;28;20530;-71
2022/01/02 04:42:02;;;;;;;15.50;10.50;;;;;;;6.03;100.00;91624.22;5012834;28;20033;-71
2022/01/02 04:44:27;;;;;;;11.75;9.75;;;;;;;6.11;100.00;91621.03;5014779;28;20483;-71
2022/01/02 04:46:53;;;;;;;15.40;11.23;;;;;;;6.10;100.00;91625.53;5014641;28;20046;-71
2022/01/02 04:49:19;;;;;;;18.45;12.75;;;;;;;6.02;100.00;91631.34;5014804;28;20029;-71
2022/01/02 04:51:44;;;;;;;17.15;11.95;;;;;;;5.95;100.00;91631.59;5014720;28;20095;-71
2022/01/02 04:54:10;;;;;;;14.73;11.52;;;;;;;5.81;100.00;91637.63;5014595;28;20474;-71
2022/01/02 04:56:36;;;;;;;15.25;10.77;;;;;;;5.76;100.00;91642.91;5014638;28;20030;-71
2022/01/02 04:59:01;;;;;;;11.60;9.70;;;;;;;5.72;100.00;91640.00;5014545;28;20161;-71
2022/01/02 05:01:27;;;;;;;12.43;9.77;;;;;;;5.64;100.00;91622.03;5014563;28;20507;-71
2022/01/02 05:03:52;;;;;;;11.63;9.63;;;;;;;5.63;100.00;91642.34;5014393;28;20029;-71
2022/01/02 05:06:18;;;;;;;21.88;14.27;;;;;;;5.61;100.00;91633.91;5014448;28;20061;-71
2022/01/02 05:08:44;;;;;;;18.95;13.30;;;;;;;5.61;100.00;91625.19;5014457;28;20026;-70
2022/01/02 05:11:10;;;;;;;28.02;18.17;;;;;;;5.71;100.00;91631.28;5014378;28;20535;-71
2022/01/02 05:13:36;;;;;;;20.98;15.30;;;;;;;5.68;100.00;91621.25;5014222;28;20101;-71
2022/01/02 05:16:02;;;;;;;22.55;15.88;;;;;;;5.67;100.00;91635.47;5014309;28;20053;-71
2022/01/02 05:18:27;;;;;;;25.02;16.65;;;;;;;5.66;100.00;91630.47;5014146;28;20034;-71
2022/01/02 05:20:53;;;;;;;25.90;17.00;;;;;;;5.64;100.00;91625.44;5014446;28;20117;-71
2022/01/02 05:23:19;;;;;;;30.42;18.65;;;;;;;5.63;100.00;91631.00;5014063;28;20492;-71
2022/01/02 05:25:45;;;;;;;28.58;19.95;;;;;;;5.54;100.00;91628.09;5014020;28;20034;-72
2022/01/02 05:28:11;;;;;;;32.00;20.58;;;;;;;5.42;100.00;91611.69;5014037;28;20109;-70
2022/01/02 05:30:38;;;;;;;49.25;27.88;;;;;;;5.35;100.00;91617.19;5013994;28;20116;-70
2022/01/02 05:33:04;;;;;;;33.45;21.50;;;;;;;5.33;100.00;91629.06;5013869;28;20030;-71
2022/01/02 05:35:31;;;;;;;34.17;22.13;;;;;;;5.22;100.00;91619.56;5013973;28;20030;-70
2022/01/02 05:37:57;;;;;;;69.65;38.53;;;;;;;5.25;100.00;91629.59;5014053;28;20037;-70
2022/01/02 05:40:24;;;;;;;52.63;32.58;;;;;;;5.26;100.00;91620.63;5013727;28;20041;-70
2022/01/02 05:42:49;;;;;;;37.47;25.70;;;;;;;5.39;100.00;91633.31;5013797;28;20026;-70
2022/01/02 05:45:15;;;;;;;26.15;19.83;;;;;;;5.33;100.00;91626.44;5013609;28;20037;-70
2022/01/02 05:47:40;;;;;;;36.53;24.67;;;;;;;5.35;100.00;91630.38;5013518;28;20053;-70
2022/01/02 05:50:07;;;;;;;37.70;26.15;;;;;;;5.40;100.00;91632.28;5013613;28;20022;-70
2022/01/02 05:52:33;;;;;;;41.05;25.15;;;;;;;5.38;100.00;91629.91;5013526;28;20034;-70
2022/01/02 05:54:59;;;;;;;28.90;19.98;;;;;;;5.43;100.00;91638.88;5013406;28;20049;-71
2022/01/02 05:57:24;;;;;;;29.30;18.85;;;;;;;5.38;100.00;91623.81;5013521;28;20033;-71
2022/01/02 05:59:50;;;;;;;35.83;22.50;;;;;;;5.36;100.00;91625.91;5013397;28;20029;-71
2022/01/02 06:02:16;;;;;;;29.02;18.48;;;;;;;5.36;100.00;91625.91;5013371;28;20037;-71
2022/01/02 06:04:41;;;;;;;25.00;17.40;;;;;;;5.28;100.00;91626.41;5013299;28;20068;-71
2022/01/02 06:07:08;;;;;;;28.63;20.25;;;;;;;5.28;100.00;91635.13;5013580;28;20464;-71
2022/01/02 06:09:33;;;;;;;26.40;18.98;;;;;;;5.30;100.00;91642.78;5013278;28;20061;-71
2022/01/02 06:11:59;;;;;;;32.63;28.20;;;;;;;5.31;100.00;91639.09;5013207;28;20131;-71
2022/01/02 06:14:24;;;;;;;20.25;16.05;;;;;;;5.31;100.00;91647.00;5013079;28;20029;-71
2022/01/02 06:16:50;;;;;;;29.20;22.88;;;;;;;5.13;100.00;91635.06;5013159;28;20026;-71
2022/01/02 06:19:16;;;;;;;28.05;21.30;;;;;;;5.10;100.00;91649.56;5013033;28;20033;-70
2022/01/02 06:21:41;;;;;;;18.85;15.07;;;;;;;4.99;100.00;91652.41;5013075;28;20485;-71
2022/01/02 06:24:07;;;;;;;22.35;16.05;;;;;;;4.99;100.00;91653.19;5012853;28;20022;-71
2022/01/02 06:26:32;;;;;;;25.13;18.15;;;;;;;5.03;100.00;91662.19;5013019;28;20419;-71
2022/01/02 06:29:02;;;;;;;50.05;33.92;;;;;;;5.10;100.00;91660.13;5012866;28;20057;-71
2022/01/02 06:31:29;;;;;;;76.43;49.45;;;;;;;5.08;100.00;91664.84;5012900;28;20034;-71
2022/01/02 06:33:55;;;;;;;64.45;40.78;;;;;;;5.23;100.00;91668.63;5012669;28;20060;-71
2022/01/02 06:36:20;;;;;;;34.22;22.98;;;;;;;5.28;100.00;91671.25;5012816;28;20077;-71
2022/01/02 06:38:46;;;;;;;82.03;47.30;;;;;;;5.19;100.00;91657.75;5012658;28;20026;-71
2022/01/02 06:41:12;;;;;;;43.30;28.08;;;;;;;5.35;100.00;91662.03;5012673;28;20033;-71
2022/01/02 06:43:39;;;;;;;73.28;46.92;;;;;;;5.30;100.00;91664.69;5012535;28;20040;-71
2022/01/02 06:46:05;;;;;;;98.43;57.78;;;;;;;5.24;100.00;91673.63;5012552;28;20110;-71
2022/01/02 06:48:31;;;;;;;72.55;44.13;;;;;;;5.20;100.00;91679.66;5011624;28;20060;-71
2022/01/02 06:50:56;;;;;;;68.03;42.22;;;;;;;5.26;100.00;91681.28;5011528;28;20022;-72
2022/01/02 06:53:22;;;;;;;70.85;45.05;;;;;;;5.29;100.00;91681.56;5011368;28;20095;-71
2022/01/02 06:55:47;;;;;;;56.13;37.35;;;;;;;5.31;100.00;91686.56;5011434;28;20025;-71
2022/01/02 06:58:14;;;;;;;49.92;33.88;;;;;;;5.36;100.00;91690.00;5011430;28;20022;-70
2022/01/02 07:00:41;;;;;;;45.50;29.67;;;;;;;5.43;100.00;91681.09;5011335;28;20057;-70
2022/01/02 07:03:06;;;;;;;48.03;31.95;;;;;;;5.48;100.00;91684.53;5011321;28;20064;-70
2022/01/02 07:05:32;;;;;;;100.32;62.50;;;;;;;5.50;100.00;91681.63;5010876;28;20073;-70
2022/01/02 07:07:57;;;;;;;49.42;35.13;;;;;;;5.57;100.00;91690.91;5011345;28;20034;-71
2022/01/02 07:10:23;;;;;;;61.85;38.28;;;;;;;5.66;100.00;91691.19;5009268;28;20041;-71
2022/01/02 07:12:49;;;;;;;54.13;36.00;;;;;;;5.82;100.00;91699.94;5011013;28;20033;-71
2022/01/02 07:15:14;;;;;;;438.45;275.20;;;;;;;5.96;100.00;91693.94;5010930;28;20029;-70
2022/01/02 07:17:41;;;;;;;90.47;57.13;;;;;;;6.10;100.00;91696.06;5003545;28;20488;-69
2022/01/02 07:20:08;;;;;;;69.80;45.30;;;;;;;6.17;100.00;91697.41;5005824;28;20029;-70
2022/01/02 07:22:34;;;;;;;73.53;47.97;;;;;;;6.35;100.00;91705.88;4993510;28;20026;-70
2022/01/02 07:25:00;;;;;;;120.70;72.15;;;;;;;6.37;100.00;91695.84;5000939;28;20113;-70
2022/01/02 07:27:25;;;;;;;164.77;94.28;;;;;;;6.11;100.00;91687.88;5010868;28;20034;-69
2022/01/02 07:29:51;;;;;;;178.52;102.03;;;;;;;5.92;100.00;91700.78;5010943;28;20033;-69
2022/01/02 07:32:18;;;;;;;175.25;103.22;;;;;;;5.89;100.00;91700.50;5010374;28;20038;-69
2022/01/02 07:34:44;;;;;;;123.20;75.70;;;;;;;6.12;100.00;91712.44;5010698;28;20560;-70
2022/01/02 07:37:10;;;;;;;135.43;84.95;;;;;;;7.79;100.00;91709.56;5010397;28;20029;-71
2022/01/02 07:39:36;;;;;;;153.60;90.22;;;;;;;9.92;100.00;91711.50;5010668;28;20026;-70
2022/01/02 07:42:02;;;;;;;120.03;72.35;;;;;;;9.33;98.07;91725.19;5004256;28;20033;-72
2022/01/02 07:44:27;;;;;;;92.20;60.63;;;;;;;8.57;100.00;91714.16;4990988;28;20049;-70
2022/01/02 07:46:53;;;;;;;71.65;44.00;;;;;;;9.12;100.00;91720.06;4949642;28;1178925;-69
2022/01/02 07:49:19;;;;;;;72.25;45.72;;;;;;;10.21;95.80;91722.06;4991786;28;20069;-67
2022/01/02 07:51:44;;;;;;;68.82;43.08;;;;;;;13.77;75.68;91712.38;4991673;28;20026;-69
2022/01/02 07:54:12;;;;;;;53.67;35.97;;;;;;;18.09;58.10;91718.94;4991556;28;20042;-68
2022/01/02 07:56:38;;;;;;;59.20;40.25;;;;;;;19.62;51.38;91715.53;5021307;28;20141;-69
2022/01/02 07:59:04;;;;;;;36.55;26.13;;;;;;;20.84;47.23;91719.34;4995003;28;20117;-69
2022/01/02 08:01:29;;;;;;;54.30;35.03;;;;;;;21.60;45.53;91717.13;4991132;28;20447;-68
2022/01/02 08:03:55;;;;;;;41.70;31.05;;;;;;;21.16;44.97;91711.94;4990604;28;20046;-68
2022/01/02 08:06:21;;;;;;;36.88;28.85;;;;;;;20.69;45.78;91718.25;4991458;28;20038;-68
2022/01/02 08:08:46;;;;;;;33.65;24.75;;;;;;;19.77;47.64;91711.28;4990042;28;20035;-68
2022/01/02 08:11:15;;;;;;;96.82;68.28;;;;;;;18.82;50.44;91699.34;4990966;28;20449;-68
2022/01/02 08:13:42;;;;;;;38.55;24.30;;;;;;;19.45;48.34;91702.28;5006425;28;20203;-68
2022/01/02 08:16:07;;;;;;;61.30;38.72;;;;;;;18.84;49.35;91703.25;4991435;28;20042;-68
2022/01/02 08:18:33;;;;;;;67.70;38.42;;;;;;;18.17;50.92;91695.75;4994341;28;20046;-68
2022/01/02 08:20:58;;;;;;;12.93;8.57;;;;;;;18.15;50.26;91696.09;4995301;28;20092;-68
2022/01/02 08:23:24;;;;;;;45.85;31.90;;;;;;;18.81;49.76;91703.16;4995136;28;20477;-68
2022/01/02 08:25:50;;;;;;;11.50;8.25;;;;;;;18.89;48.85;91714.91;4994546;28;20030;-68
2022/01/02 08:28:15;;;;;;;19.30;13.57;;;;;;;19.03;48.70;91704.56;4994876;28;20423;-68
2022/01/02 08:30:43;;;;;;;17.63;12.60;;;;;;;19.33;48.27;91708.53;4995106;28;20033;-68
2022/01/02 08:33:10;;;;;;;14.93;10.73;;;;;;;19.11;48.57;91703.66;4994199;28;20046;-69
2022/01/02 08:35:39;;;;;;;6.38;5.63;;;;;;;19.35;47.32;91714.34;4995060;28;20104;-68
2022/01/02 08:38:04;;;;;;;8.98;8.10;;;;;;;20.66;45.88;91723.56;4994900;28;20040;-69
2022/01/02 08:40:30;;;;;;;5.80;5.28;;;;;;;19.37;47.31;91719.41;4999726;28;20111;-69
2022/01/02 08:42:56;;;;;;;7.50;6.60;;;;;;;20.80;45.30;91713.06;5014243;28;20459;-69
2022/01/02 08:45:23;;;;;;;48.45;31.20;;;;;;;19.66;47.26;91710.22;5014524;28;20104;-69
2022/01/02 08:47:48;;;;;;;9.10;7.47;;;;;;;21.29;44.11;91720.72;5013539;28;20115;-69
2022/01/02 08:50:14;;;;;;;29.00;22.05;;;;;;;21.57;43.38;91718.63;5004833;28;20042;-69
2022/01/02 08:52:40;;;;;;;9.63;8.50;;;;;;;20.24;45.43;91714.06;4994728;28;20077;-70
2022/01/02 08:55:06;;;;;;;6.68;6.07;;;;;;;19.52;46.57;91710.56;4994532;28;20133;-69
2022/01/02 08:57:31;;;;;;;8.55;6.28;;;;;;;20.23;45.46;91709.78;4994590;28;20113;-69
2022/01/02 08:59:57;;;;;;;7.18;6.38;;;;;;;19.44;47.35;91709.59;4994522;28;20041;-69
2022/01/02 09:02:22;;;;;;;5.53;4.97;;;;;;;19.94;46.39;91705.56;4993977;28;20042;-69
2022/01/02 09:04:48;;;;;;;11.55;5.05;;;;;;;19.51;47.63;91708.22;4994061;28;20420;-69
2022/01/02 09:07:13;;;;;;;7.18;5.97;;;;;;;19.00;48.46;91705.25;4993092;28;20074;-69
2022/01/02 09:09:40;;;;;;;5.18;4.65;;;;;;;18.97;47.66;91695.16;4994071;28;20042;-69
2022/01/02 09:12:07;;;;;;;7.35;4.88;;;;;;;18.30;49.74;91700.00;4994294;28;20045;-69
2022/01/02 09:14:32;;;;;;;8.52;5.75;;;;;;;18.14;49.25;91701.78;4994214;28;20038;-70
2022/01/02 09:16:58;;;;;;;4.95;4.45;;;;;;;19.31;47.54;91681.09;4993222;28;20125;-69
2022/01/02 09:19:24;;;;;;;6.43;4.90;;;;;;;20.01;46.38;91697.63;4994484;28;20400;-68
2022/01/02 09:21:50;;;;;;;4.18;3.78;;;;;;;20.86;44.67;91692.75;4994287;28;20501;-71
2022/01/02 09:24:16;;;;;;;4.38;3.90;;;;;;;19.67;45.08;91690.19;5004798;28;20029;-73
2022/01/02 09:26:41;;;;;;;5.57;3.35;;;;;;;20.67;43.91;91693.47;5012107;28;20457;-73
2022/01/02 09:29:07;;;;;;;4.53;3.45;;;;;;;19.83;45.18;91687.50;5012082;28;20026;-73
2022/01/02 09:31:33;;;;;;;4.22;3.83;;;;;;;19.85;45.23;91682.53;5013056;28;20041;-75
2022/01/02 09:33:59;;;;;;;5.20;4.70;;;;;;;18.95;47.15;91675.84;5013601;28;20063;-75
2022/01/02 09:36:24;;;;;;;4.35;3.95;;;;;;;19.72;45.64;91681.81;5013655;28;20038;-75
2022/01/02 09:38:50;;;;;;;4.90;4.32;;;;;;;19.86;45.99;91676.00;5013128;28;20057;-75
2022/01/02 09:41:18;;;;;;;4.82;4.43;;;;;;;19.04;46.51;91668.38;5013535;28;20042;-74
2022/01/02 09:43:44;;;;;;;6.70;5.53;;;;;;;19.82;46.80;91672.44;5028605;28;20048;-73
2022/01/02 09:46:11;;;;;;;4.53;4.07;;;;;;;19.05;47.24;91659.16;5028134;28;20045;-75
2022/01/02 09:48:37;;;;;;;4.30;3.90;;;;;;;18.09;48.78;91656.22;5013263;28;20050;-76
2022/01/02 09:51:02;;;;;;;5.05;4.57;;;;;;;18.37;48.35;91659.81;5012828;28;20091;-76
2022/01/02 09:53:28;;;;;;;5.50;5.00;;;;;;;18.13;49.55;91651.75;5012809;28;20041;-76
2022/01/02 09:55:54;;;;;;;4.38;3.97;;;;;;;18.26;49.56;91653.31;5013308;28;20091;-76
2022/01/02 09:58:20;;;;;;;62.00;42.55;;;;;;;18.96;48.73;91656.59;5013492;28;20042;-76
2022/01/02 10:00:48;;;;;;;6.13;5.43;;;;;;;20.76;44.57;91648.09;5016021;28;20061;-78
2022/01/02 10:03:14;;;;;;;4.78;4.28;;;;;;;19.93;45.72;91643.81;5015588;28;20420;-76
2022/01/02 10:06:01;;;;;;;5.25;4.65;;;;;;;20.82;44.70;91643.97;5011892;28;20042;-78
2022/01/02 10:08:31;;;;;;;20.15;16.25;;;;;;;20.60;43.92;91626.50;5012741;28;20045;-71
2022/01/02 10:13:52;;;;;;;4.15;3.50;;;;;;;20.03;45.40;91635.94;5012732;28;20463;-72
2022/01/02 10:16:25;;;;;;;3.50;3.20;;;;;;;20.07;44.87;91627.16;5011917;28;20409;-69
2022/01/02 10:18:52;;;;;;;3.47;3.17;;;;;;;20.90;42.64;91621.34;5012347;28;20030;-71
2022/01/02 10:21:26;;;;;;;3.53;3.22;;;;;;;20.37;43.57;91620.16;5012659;28;20038;-70
2022/01/02 10:24:09;;;;;;;3.50;3.20;;;;;;;20.40;44.99;91616.75;5012126;28;20508;-70
2022/01/02 10:26:34;;;;;;;4.80;4.10;;;;;;;19.45;44.91;91607.84;5012603;28;20038;-70
2022/01/02 10:29:13;;;;;;;4.93;4.43;;;;;;;19.89;44.98;91608.63;5027598;28;20416;-70
2022/01/02 10:31:40;;;;;;;10.65;8.07;;;;;;;21.39;43.35;91603.78;5011338;28;20081;-70
2022/01/02 10:34:06;;;;;;;8.35;6.18;;;;;;;21.64;42.53;91605.03;5010888;28;20522;-72
2022/01/02 10:36:33;;;;;;;4.45;4.05;;;;;;;20.87;43.86;91605.84;4998593;28;20033;-72
2022/01/02 10:39:10;;;;;;;4.72;4.22;;;;;;;20.87;43.79;91600.44;5008937;28;20061;-69
2022/01/02 10:41:41;;;;;;;5.53;4.35;;;;;;;19.98;44.69;91598.41;5012314;28;20066;-69
2022/01/02 10:44:26;;;;;;;7.13;5.93;;;;;;;19.22;46.32;91593.34;5011793;28;20121;-70
2022/01/02 10:47:07;;;;;;;5.07;4.25;;;;;;;19.87;45.67;91596.56;5011030;28;20046;-70
2022/01/02 10:49:55;;;;;;;5.00;4.50;;;;;;;20.57;43.74;91575.84;5012166;28;20072;-71
2022/01/02 10:52:21;;;;;;;3.63;3.33;;;;;;;18.48;47.74;91576.63;5011618;28;20038;-70
2022/01/02 10:54:47;;;;;;;6.47;5.88;;;;;;;19.99;46.49;91578.38;5011734;28;20416;-71
2022/01/02 10:57:13;;;;;;;15.82;12.55;;;;;;;19.16;46.78;91584.72;5011714;28;20420;-70
2022/01/02 10:59:39;;;;;;;5.38;4.20;;;;;;;18.94;46.75;91582.59;5011129;28;20425;-70
2022/01/02 11:02:06;;;;;;;4.45;4.05;;;;;;;20.43;44.22;91575.53;5012168;28;20444;-71
2022/01/02 11:04:35;;;;;;;4.88;4.43;;;;;;;19.88;45.59;91576.53;5011619;28;20048;-71
2022/01/02 11:07:04;;;;;;;5.22;4.22;;;;;;;19.24;45.80;91564.88;5011180;28;20109;-70
2022/01/02 11:09:31;;;;;;;4.40;3.40;;;;;;;18.98;46.64;91569.97;5011537;28;20439;-70
2022/01/02 11:11:57;;;;;;;3.72;3.42;;;;;;;19.68;45.41;91568.34;5011760;28;20034;-72
2022/01/02 11:14:23;;;;;;;4.40;4.00;;;;;;;20.04;44.83;91570.00;5010908;28;20049;-68
2022/01/02 11:16:48;;;;;;;6.55;4.20;;;;;;;19.35;44.60;91563.25;5008773;28;20472;-70
2022/01/02 11:19:14;;;;;;;4.72;3.30;;;;;;;18.81;46.49;91561.06;5008503;28;20049;-71
2022/01/02 11:21:44;;;;;;;3.90;3.00;;;;;;;18.96;45.99;91564.16;5011260;28;20091;-71
2022/01/02 11:24:18;;;;;;;4.05;3.40;;;;;;;19.56;45.60;91564.94;5011394;28;20037;-70
2022/01/02 11:26:54;;;;;;;4.13;3.15;;;;;;;19.23;46.35;91551.75;5011679;28;20416;-71
2022/01/02 11:29:29;;;;;;;4.13;3.72;;;;;;;19.64;46.17;91554.00;5010719;28;20607;-70
2022/01/02 11:31:56;;;;;;;5.00;3.50;;;;;;;18.80;45.81;91562.19;5011344;28;20041;-70
2022/01/02 11:34:31;;;;;;;4.47;4.07;;;;;;;19.19;46.54;91562.44;5010950;28;20038;-71
2022/01/02 11:37:12;;;;;;;9.65;8.85;;;;;;;18.94;46.28;91561.81;5025138;28;20113;-71